Portada
METAR-TAF:

METAR-TAF

Aeropuertos :

Chiredzi, Zimbabue

latitud: 21-01S, longitud: 031-35E, altitud: 429 m

Observación

El informe se hizo hace 14 horas y 39 minutos, a las 06:00 UTC
Viento 7 kt del sur
Temperatura 28°C
Humedad 74%
Presión 1017 hPa
Visibilidad 10 km o más
sin nubes por debajo de 1500 m y sin presencia de cumulonimbus.

METAR: FVCZ 260600Z 18007KT CAVOK 28/23 Q1017

Hora: 22:39 (20:39 UTC)


TAF: falta

Observaciones y pronósticos meteorológicos de más de 4000 aeropuertos (mensajes METAR y TAF).

Los puntos amarillos y rojos representan las estaciones disponibles.

Ponga el ratón en el punto deseado para ver el nombre de la estación.

Haga clic para ver las observaciones y los pronósticos meteorológicos.

Para cambiar el mapa : haga clic en los botones verdes con una cruz de color negro para hacer un zoom, en el botón verde con un guión para alejar o en las flechas verdes para mapas adyacentes.


METAR-TAF: